createdAt,value
2023-04-24T15:49:11.749Z,0.50
2023-04-24T15:53:06.479Z,0.50
2023-04-24T15:54:06.452Z,0.50
2023-04-24T15:55:06.451Z,0.60
2023-04-24T15:56:06.437Z,0.60
2023-04-24T15:57:06.465Z,0.50
2023-04-24T15:58:06.427Z,0.60
2023-04-24T15:59:06.424Z,0.60
2023-04-24T16:00:06.415Z,0.40
2023-04-24T16:01:06.432Z,0.40
2023-04-24T16:02:06.402Z,0.50
2023-04-24T16:03:08.418Z,0.60
2023-04-24T16:04:06.574Z,0.50
2023-04-24T16:05:06.386Z,0.50
2023-04-24T16:06:06.383Z,0.50
2023-04-24T16:07:06.386Z,0.50
2023-04-24T16:08:06.435Z,0.80
2023-04-24T16:09:06.368Z,0.60
2023-04-24T16:10:06.365Z,0.50
2023-04-24T16:11:06.367Z,0.50
2023-04-24T16:12:06.356Z,0.60
2023-04-24T16:13:06.363Z,0.40
2023-04-24T16:14:06.799Z,0.50
2023-04-24T16:15:06.345Z,0.40
2023-04-24T16:16:06.375Z,0.50
2023-04-24T16:17:06.327Z,0.50
2023-04-24T16:18:06.372Z,0.50
2023-04-24T16:19:06.321Z,0.40
2023-04-24T16:20:06.318Z,0.50
2023-04-24T16:21:06.329Z,0.50
2023-04-24T16:22:06.318Z,0.50
2023-04-24T16:23:06.336Z,0.40
2023-04-24T16:24:06.300Z,0.50
2023-04-24T16:25:06.296Z,0.40
2023-04-24T16:26:06.308Z,0.40
2023-04-24T16:27:06.286Z,0.50
2023-04-24T16:28:06.297Z,0.40
2023-04-24T16:29:06.274Z,0.70
2023-04-24T16:30:06.283Z,0.50
2023-04-24T16:31:06.363Z,0.70
2023-04-24T16:32:06.292Z,0.50
2023-04-24T16:33:06.304Z,0.50
2023-04-24T16:34:06.255Z,0.50
2023-04-24T16:35:06.249Z,0.50
2023-04-24T16:36:07.639Z,0.50
2023-04-24T16:37:06.610Z,0.60
2023-04-24T16:38:06.245Z,0.60
2023-04-24T16:39:06.251Z,0.60
2023-04-24T16:40:06.251Z,0.50
2023-04-24T16:41:06.254Z,0.50
2023-04-24T16:42:06.214Z,0.60
2023-04-24T16:43:06.212Z,0.70
2023-04-24T16:44:06.222Z,0.70
2023-04-24T16:45:06.210Z,0.70
2023-04-24T16:46:06.199Z,0.70
2023-04-24T16:47:06.257Z,0.70
2023-04-24T16:48:06.274Z,0.80
2023-04-24T16:49:06.216Z,0.70
2023-04-24T16:50:06.183Z,0.70
2023-04-24T16:51:06.173Z,0.70
2023-04-24T16:52:06.166Z,0.70
2023-04-24T16:53:06.188Z,0.70
2023-04-24T16:54:06.163Z,0.70
2023-04-24T16:55:06.165Z,0.70
2023-04-24T16:56:06.153Z,0.60
2023-04-24T16:57:06.150Z,0.60
2023-04-24T16:58:06.144Z,0.60
2023-04-24T16:59:06.138Z,0.50
2023-04-24T17:00:06.129Z,0.60
2023-04-24T17:01:06.215Z,0.50
2023-04-24T17:02:06.150Z,0.50
2023-04-24T17:03:06.328Z,0.50
2023-04-24T17:04:06.230Z,0.60
2023-04-24T17:05:06.127Z,0.60
2023-04-24T17:06:06.106Z,0.60
2023-04-24T17:07:06.100Z,0.60
2023-04-24T17:08:06.108Z,0.60
2023-04-24T17:09:06.095Z,0.70
2023-04-24T17:10:06.102Z,0.70
2023-04-24T17:11:06.075Z,0.70
2023-04-24T17:12:06.078Z,0.70
2023-04-24T17:13:06.070Z,0.70
2023-04-24T17:14:06.089Z,0.70
2023-04-24T17:15:06.055Z,0.70
2023-04-24T17:16:06.084Z,0.80
2023-04-24T17:17:06.052Z,0.80
2023-04-24T17:18:06.109Z,0.60
2023-04-24T17:19:06.052Z,0.70
2023-04-24T17:20:18.722Z,0.80
2023-04-24T17:21:06.037Z,0.70
2023-04-24T17:22:06.641Z,0.60
2023-04-24T17:23:06.052Z,0.80
2023-04-24T17:24:06.010Z,0.80
2023-04-24T17:25:06.019Z,0.70
2023-04-24T17:26:06.012Z,0.70
2023-04-24T17:27:14.450Z,0.70
2023-04-24T17:28:05.984Z,0.90
2023-04-24T17:29:05.988Z,0.70
2023-04-24T17:30:05.974Z,0.70
2023-04-24T17:31:05.973Z,0.70
2023-04-24T17:32:06.105Z,0.70
2023-04-24T17:33:06.025Z,0.80
2023-04-24T17:34:05.955Z,0.70
2023-04-24T17:35:05.957Z,0.60
2023-04-24T17:36:06.038Z,0.60
2023-04-24T17:37:05.938Z,0.60
2023-04-24T17:38:05.938Z,0.60
2023-04-24T17:39:05.926Z,0.50
2023-04-24T17:40:05.921Z,0.60
2023-04-24T17:41:05.916Z,0.60
2023-04-24T17:42:05.928Z,0.60
2023-04-24T17:43:05.906Z,0.60
2023-04-24T17:44:05.897Z,0.60
2023-04-24T17:45:05.892Z,0.60
2023-04-24T17:46:05.909Z,0.70
2023-04-24T17:47:05.925Z,0.80
2023-04-24T17:48:05.927Z,0.80
2023-04-24T17:49:05.869Z,0.70
2023-04-24T17:50:05.872Z,0.80
2023-04-24T17:51:05.855Z,0.70
2023-04-24T17:52:05.859Z,0.80
2023-04-24T17:53:05.848Z,0.80
2023-04-24T17:54:05.840Z,0.60
2023-04-24T17:55:05.837Z,1.20
2023-04-24T17:56:05.830Z,0.90
2023-04-24T17:57:05.823Z,0.90
2023-04-24T17:58:05.816Z,0.80
2023-04-24T17:59:05.809Z,0.80
2023-04-24T18:00:05.803Z,0.70
2023-04-24T18:01:05.830Z,0.70
2023-04-24T18:02:05.809Z,0.70
2023-04-24T18:03:05.892Z,0.70
2023-04-24T18:04:06.085Z,0.80
2023-04-24T18:05:05.792Z,0.80
2023-04-24T18:06:05.766Z,0.90
2023-04-24T18:07:05.761Z,0.90
2023-04-24T18:08:05.755Z,0.80
2023-04-24T18:09:05.758Z,0.80
2023-04-24T18:10:05.747Z,0.70
2023-04-24T18:11:05.737Z,0.60
2023-04-24T18:12:05.730Z,0.60
2023-04-24T18:13:05.732Z,0.50
2023-04-24T18:14:05.712Z,0.50
2023-04-24T18:15:13.718Z,0.40
2023-04-24T18:16:05.776Z,0.30
2023-04-24T18:17:05.700Z,0.40
2023-04-24T18:18:05.706Z,0.50
2023-04-24T18:19:05.689Z,0.50
2023-04-24T18:20:05.687Z,0.40
2023-04-24T18:21:05.673Z,0.40
2023-04-24T18:22:05.668Z,0.20
2023-04-24T18:23:05.667Z,0.10
2023-04-24T18:24:05.654Z,0.20
2023-04-24T18:25:05.652Z,0.20
2023-04-24T18:26:05.654Z,0.10
2023-04-24T18:27:05.635Z,0.10
2023-04-24T18:28:05.632Z,0.10
2023-04-24T18:29:05.624Z,0.10
2023-04-24T18:30:05.616Z,0.10
2023-04-24T18:31:05.697Z,0.10
2023-04-24T18:32:05.607Z,0.20
2023-04-24T18:33:05.647Z,0.10
2023-04-24T18:34:05.588Z,0.10
2023-04-24T18:35:05.590Z,0.80
2023-04-24T18:36:05.581Z,0.10
2023-04-24T18:37:05.629Z,0.00
2023-04-24T18:38:05.577Z,0.10
2023-04-24T18:39:05.554Z,0.10
2023-04-24T18:40:05.550Z,0.60
2023-04-24T18:41:05.591Z,0.20
2023-04-24T18:42:05.535Z,0.20
2023-04-24T18:43:05.546Z,0.10
2023-04-24T18:44:05.517Z,0.10
2023-04-24T18:45:05.517Z,0.20
2023-04-24T18:46:05.509Z,0.10
2023-04-24T18:47:05.560Z,0.20
2023-04-24T18:48:05.794Z,0.10
2023-04-24T18:49:05.493Z,0.10
2023-04-24T18:50:05.486Z,0.10
2023-04-24T18:51:05.487Z,0.20
2023-04-24T18:52:05.462Z,0.10
2023-04-24T18:53:05.460Z,0.20
2023-04-24T18:54:05.468Z,0.90
2023-04-24T18:55:05.474Z,0.10
2023-04-24T18:56:05.438Z,0.10
2023-04-24T18:57:05.446Z,0.10
2023-04-24T18:58:05.420Z,0.10
2023-04-24T18:59:05.418Z,0.20
2023-04-24T19:00:05.423Z,0.10
2023-04-24T19:01:07.513Z,0.20
2023-04-24T19:02:05.453Z,0.10
2023-04-24T19:03:05.554Z,0.10
2023-04-24T19:04:05.396Z,0.10
2023-04-24T19:05:05.366Z,0.10
2023-04-24T19:06:05.380Z,0.20
2023-04-24T19:07:05.368Z,0.20
2023-04-24T19:08:05.356Z,0.10
2023-04-24T19:09:05.336Z,0.10
2023-04-24T19:10:05.329Z,0.20
2023-04-24T19:11:05.329Z,0.10
2023-04-24T19:12:05.311Z,0.30
2023-04-24T19:13:05.428Z,0.20
2023-04-24T19:14:05.298Z,0.20
2023-04-24T19:15:05.355Z,0.20
2023-04-24T19:16:05.299Z,0.30
2023-04-24T19:17:05.274Z,0.20
2023-04-24T19:18:05.333Z,0.20
2023-04-24T19:19:05.885Z,0.30
2023-04-24T19:20:05.254Z,0.20
2023-04-24T19:21:05.254Z,0.20
2023-04-24T19:22:05.234Z,0.20
2023-04-24T19:23:05.225Z,0.20
2023-04-24T19:24:05.278Z,0.30
2023-04-24T19:25:05.449Z,0.30
2023-04-24T19:26:05.220Z,0.20
2023-04-24T19:27:05.195Z,0.20
2023-04-24T19:28:05.187Z,0.20
2023-04-24T19:29:05.182Z,0.30
2023-04-24T19:30:05.204Z,0.30
2023-04-24T19:31:05.161Z,0.30
2023-04-24T19:32:05.206Z,0.20
2023-04-24T19:33:05.211Z,0.30
2023-04-24T19:34:05.152Z,0.30
2023-04-24T19:35:05.134Z,0.30
2023-04-24T19:36:05.127Z,0.40
2023-04-24T19:37:05.123Z,0.30
2023-04-24T19:38:05.110Z,0.30
2023-04-24T19:39:05.104Z,0.30
2023-04-24T19:40:05.102Z,0.40
2023-04-24T19:41:05.089Z,0.30
2023-04-24T19:42:07.139Z,0.50
2023-04-24T19:43:05.093Z,0.40
2023-04-24T19:44:05.066Z,0.40
2023-04-24T19:45:05.059Z,0.40
2023-04-24T19:46:05.109Z,0.50
2023-04-24T19:47:05.042Z,0.30
2023-04-24T19:48:05.083Z,0.50
2023-04-24T19:49:05.028Z,0.50
2023-04-24T19:50:05.022Z,0.50
2023-04-24T19:51:05.025Z,0.50
2023-04-24T19:52:05.007Z,0.40
2023-04-24T19:54:47.768Z,0.40
2023-04-24T19:55:47.707Z,0.40
2023-04-24T19:57:40.823Z,0.60
2023-04-24T19:58:40.815Z,0.50
2023-04-24T20:00:44.801Z,0.50
2023-04-24T20:01:44.794Z,0.40
2023-04-24T20:03:48.897Z,0.50
2023-04-24T20:04:49.117Z,0.50
2023-04-24T20:06:52.767Z,0.60
2023-04-24T20:07:52.753Z,0.50
2023-04-24T20:09:56.750Z,0.60
2023-04-24T20:10:56.730Z,0.60
2023-04-24T20:13:00.722Z,0.60
2023-04-24T20:14:00.709Z,0.70
2023-04-24T20:16:04.724Z,0.70
2023-04-24T20:17:04.677Z,0.70
2023-04-24T20:19:08.666Z,0.80
2023-04-24T20:20:08.681Z,0.90
2023-04-24T20:22:13.388Z,0.80
2023-04-24T20:23:12.636Z,0.80
2023-04-24T20:25:06.323Z,0.90
2023-04-24T20:26:05.922Z,0.90
2023-04-24T20:28:09.920Z,0.90
2023-04-24T20:29:09.898Z,0.90
2023-04-24T20:31:13.926Z,1.00
2023-04-24T20:32:13.865Z,1.10
2023-04-24T20:34:06.776Z,1.10
2023-04-24T20:35:06.762Z,1.00
2023-04-24T20:37:10.751Z,1.10
2023-04-24T20:38:10.731Z,1.00
2023-04-24T20:40:14.749Z,1.00
2023-04-24T20:41:14.712Z,0.90
2023-04-24T20:43:18.717Z,1.10
2023-04-24T20:44:18.715Z,1.00
2023-04-24T20:46:22.774Z,1.20
2023-04-24T20:47:22.734Z,1.20
2023-04-24T20:49:26.689Z,1.30
2023-04-24T20:50:26.675Z,1.30
2023-04-24T20:52:19.775Z,1.30
2023-04-24T20:53:19.762Z,1.40
2023-04-24T20:55:12.928Z,1.40
2023-04-24T20:56:12.849Z,1.50
2023-04-24T20:58:16.832Z,1.50
2023-04-24T20:59:16.808Z,1.50
2023-04-24T21:01:20.817Z,1.50
2023-04-24T21:02:20.804Z,1.50
2023-04-24T21:04:13.683Z,1.50
2023-04-24T21:05:13.653Z,1.50
2023-04-24T21:07:06.758Z,1.50
2023-04-24T21:08:06.841Z,1.60
2023-04-24T21:10:10.750Z,1.50
2023-04-24T21:11:10.728Z,1.60
2023-04-24T21:13:03.829Z,1.70
2023-04-24T21:14:03.813Z,1.70
2023-04-24T21:16:07.882Z,1.70
2023-04-24T21:17:07.805Z,1.70
2023-04-24T21:19:11.794Z,1.50
2023-04-24T21:20:11.777Z,1.60
2023-04-24T21:22:04.869Z,1.90
2023-04-24T21:23:04.851Z,1.70
2023-04-24T21:25:08.860Z,1.80
2023-04-24T21:26:08.837Z,1.80
2023-04-24T21:28:12.840Z,2.00
2023-04-24T21:29:12.821Z,2.00
2023-04-24T21:31:16.847Z,1.90
2023-04-24T21:32:16.971Z,1.90
2023-04-24T21:34:09.749Z,2.40
2023-04-24T21:35:09.728Z,2.00
2023-04-24T21:36:09.730Z,2.30
2023-04-24T21:37:09.709Z,2.00
2023-04-24T21:38:09.697Z,2.20
2023-04-24T21:39:09.697Z,2.20
2023-04-24T21:40:09.686Z,2.10
2023-04-24T21:41:09.673Z,2.30
2023-04-24T21:42:09.671Z,2.40
2023-04-24T21:43:09.654Z,2.30
2023-04-24T21:44:09.646Z,2.60
2023-04-24T21:45:09.637Z,2.20
2023-04-24T21:46:09.669Z,2.40
2023-04-24T21:47:09.620Z,2.40
2023-04-24T21:48:09.645Z,2.30
2023-04-24T21:49:09.610Z,2.20
2023-04-24T21:50:09.595Z,2.20
2023-04-24T21:51:09.585Z,2.20
2023-04-24T21:52:09.585Z,2.10
2023-04-24T21:53:09.575Z,2.10
2023-04-24T21:54:09.665Z,2.60
2023-04-24T21:55:09.573Z,2.50
2023-04-24T21:56:09.551Z,2.30
2023-04-24T21:57:09.538Z,2.30
2023-04-24T21:58:09.530Z,2.40
2023-04-24T21:59:09.529Z,2.30
2023-04-24T22:00:09.521Z,2.40
2023-04-24T22:01:09.635Z,2.90
2023-04-24T22:02:09.529Z,2.90
2023-04-24T22:03:09.633Z,2.70
2023-04-24T22:04:09.688Z,3.00
2023-04-24T22:05:09.476Z,3.00
2023-04-24T22:06:09.471Z,2.90
2023-04-24T22:07:09.455Z,2.80
2023-04-24T22:08:09.450Z,3.10
2023-04-24T22:09:09.439Z,2.80
2023-04-24T22:10:09.431Z,3.00
2023-04-24T22:11:19.899Z,2.90
2023-04-24T22:12:09.470Z,3.30
2023-04-24T22:13:09.408Z,3.10
2023-04-24T22:14:09.399Z,3.40
2023-04-24T22:15:09.405Z,3.30
2023-04-24T22:16:09.406Z,3.20
2023-04-24T22:17:09.376Z,3.10
2023-04-24T22:18:09.546Z,3.10
2023-04-24T22:19:09.356Z,3.10
2023-04-24T22:20:09.358Z,3.30
2023-04-24T22:21:09.340Z,3.10
2023-04-24T22:22:09.329Z,3.10
2023-04-24T22:23:09.329Z,3.10
2023-04-24T22:24:09.314Z,3.10
2023-04-24T22:25:09.306Z,2.70
2023-04-24T22:26:09.299Z,3.00
2023-04-24T22:27:09.303Z,2.90
2023-04-24T22:28:09.281Z,3.10
2023-04-24T22:29:09.281Z,2.80
2023-04-24T22:30:09.272Z,2.90
2023-04-24T22:31:09.294Z,2.90
2023-04-24T22:32:09.245Z,3.00
2023-04-24T22:33:09.279Z,3.10
2023-04-24T22:34:09.237Z,2.90
2023-04-24T22:35:09.217Z,3.20
2023-04-24T22:36:09.211Z,2.90
2023-04-24T22:37:09.202Z,3.10
2023-04-24T22:38:09.188Z,2.80
2023-04-24T22:39:09.186Z,2.90
2023-04-24T22:40:09.181Z,3.00
2023-04-24T22:41:09.168Z,2.90
2023-04-24T22:42:09.164Z,2.90
2023-04-24T22:43:09.154Z,3.20
2023-04-24T22:44:09.143Z,3.00
2023-04-24T22:45:09.133Z,3.00
2023-04-24T22:46:09.140Z,2.90
2023-04-24T22:47:09.123Z,2.90
2023-04-24T22:48:09.158Z,2.80
2023-04-24T22:49:09.153Z,2.80
2023-04-24T22:50:09.099Z,3.00
2023-04-24T22:51:09.088Z,2.60
2023-04-24T22:52:09.084Z,2.90
2023-04-24T22:53:09.064Z,2.70
2023-04-24T22:54:09.056Z,2.80
2023-04-24T22:55:09.047Z,2.50
2023-04-24T22:56:09.041Z,2.60
2023-04-24T22:57:09.035Z,3.00
2023-04-24T22:58:09.074Z,2.70
2023-04-24T22:59:09.013Z,2.50
2023-04-24T23:00:09.005Z,2.60
2023-04-24T23:01:09.053Z,2.80
2023-04-24T23:02:09.104Z,3.00
2023-04-24T23:03:09.125Z,2.90
2023-04-24T23:04:09.038Z,2.80
2023-04-24T23:05:08.972Z,2.90
2023-04-24T23:06:08.955Z,3.10
2023-04-24T23:07:08.954Z,3.20
2023-04-24T23:08:08.941Z,3.20
2023-04-24T23:09:08.933Z,3.10
2023-04-24T23:10:08.922Z,3.40
2023-04-24T23:11:08.910Z,3.20
2023-04-24T23:12:08.917Z,3.40
2023-04-24T23:13:08.895Z,3.30
2023-04-24T23:14:08.892Z,3.50
2023-04-24T23:15:08.889Z,3.30
2023-04-24T23:16:08.895Z,3.30
2023-04-24T23:17:08.870Z,3.40
2023-04-24T23:18:08.860Z,3.30
2023-04-24T23:19:08.847Z,3.40
2023-04-24T23:20:08.836Z,3.30
2023-04-24T23:21:08.841Z,3.30
2023-04-24T23:22:08.819Z,3.30
2023-04-24T23:23:08.813Z,3.30
2023-04-24T23:24:08.801Z,3.10
2023-04-24T23:25:08.817Z,3.10
2023-04-24T23:26:08.801Z,3.00
2023-04-24T23:27:08.896Z,2.80
2023-04-24T23:28:08.773Z,2.80
2023-04-24T23:29:08.763Z,2.70
2023-04-24T23:30:08.765Z,2.70
2023-04-24T23:31:08.745Z,2.70
2023-04-24T23:32:08.786Z,2.60
2023-04-24T23:33:08.797Z,2.60
2023-04-24T23:34:08.727Z,3.00
2023-04-24T23:35:08.810Z,2.40
2023-04-24T23:36:08.704Z,2.50
2023-04-24T23:37:08.692Z,2.50
2023-04-24T23:38:08.790Z,2.40
2023-04-24T23:39:08.747Z,2.40
2023-04-24T23:40:08.670Z,2.40
2023-04-24T23:41:08.670Z,2.50
2023-04-24T23:42:08.651Z,2.40
2023-04-24T23:43:08.892Z,2.40
2023-04-24T23:44:08.640Z,2.50
2023-04-24T23:45:08.628Z,2.20
2023-04-24T23:46:08.659Z,2.60
2023-04-24T23:47:08.608Z,2.90
2023-04-24T23:48:08.626Z,2.20
2023-04-24T23:49:08.611Z,2.20
2023-04-24T23:50:08.599Z,2.20
2023-04-24T23:51:08.572Z,2.20
2023-04-24T23:52:08.570Z,2.30
2023-04-24T23:53:08.562Z,2.20
2023-04-24T23:54:08.582Z,2.10
2023-04-24T23:55:08.550Z,2.10
2023-04-24T23:56:08.550Z,2.10
2023-04-24T23:57:08.520Z,2.00
2023-04-24T23:58:08.525Z,2.10
2023-04-24T23:59:08.510Z,2.30
